sensor_id;sensor_type;location;lat;lon;timestamp;pressure;altitude;pressure_sealevel;temperature
24201;BMP280;2801;50.972;7.856;2023-11-19T00:00:18;97100.63;;;9.42
24201;BMP280;2801;50.972;7.856;2023-11-19T00:02:46;97103.91;;;9.47
24201;BMP280;2801;50.972;7.856;2023-11-19T00:05:14;97098.22;;;9.49
24201;BMP280;2801;50.972;7.856;2023-11-19T00:07:42;97093.03;;;9.44
24201;BMP280;2801;50.972;7.856;2023-11-19T00:10:11;97088.28;;;9.49
24201;BMP280;2801;50.972;7.856;2023-11-19T00:12:42;97086.41;;;9.50
24201;BMP280;2801;50.972;7.856;2023-11-19T00:15:10;97087.66;;;9.52
24201;BMP280;2801;50.972;7.856;2023-11-19T00:17:41;97077.88;;;9.56
24201;BMP280;2801;50.972;7.856;2023-11-19T00:20:17;97073.75;;;9.59
24201;BMP280;2801;50.972;7.856;2023-11-19T00:22:45;97062.13;;;9.55
24201;BMP280;2801;50.972;7.856;2023-11-19T00:25:20;97065.06;;;9.62
24201;BMP280;2801;50.972;7.856;2023-11-19T00:27:50;97078.13;;;9.63
24201;BMP280;2801;50.972;7.856;2023-11-19T00:30:18;97072.13;;;9.66
24201;BMP280;2801;50.972;7.856;2023-11-19T00:32:45;97062.88;;;9.64
24201;BMP280;2801;50.972;7.856;2023-11-19T00:35:13;97038.09;;;9.67
24201;BMP280;2801;50.972;7.856;2023-11-19T00:37:42;97036.22;;;9.67
24201;BMP280;2801;50.972;7.856;2023-11-19T00:40:16;97037.94;;;9.72
24201;BMP280;2801;50.972;7.856;2023-11-19T00:42:45;97033.81;;;9.74
24201;BMP280;2801;50.972;7.856;2023-11-19T00:45:12;97036.28;;;9.79
24201;BMP280;2801;50.972;7.856;2023-11-19T00:47:40;97036.28;;;9.79
24201;BMP280;2801;50.972;7.856;2023-11-19T00:50:09;97041.63;;;9.79
24201;BMP280;2801;50.972;7.856;2023-11-19T00:52:38;97030.28;;;9.82
24201;BMP280;2801;50.972;7.856;2023-11-19T00:55:07;97036.88;;;9.85
24201;BMP280;2801;50.972;7.856;2023-11-19T00:57:35;97028.06;;;9.84
24201;BMP280;2801;50.972;7.856;2023-11-19T01:00:05;97031.19;;;9.86
24201;BMP280;2801;50.972;7.856;2023-11-19T01:02:41;97027.38;;;9.87
24201;BMP280;2801;50.972;7.856;2023-11-19T01:05:09;97023.63;;;9.88
24201;BMP280;2801;50.972;7.856;2023-11-19T01:07:36;97018.38;;;9.92
24201;BMP280;2801;50.972;7.856;2023-11-19T01:10:05;97002.22;;;9.88
24201;BMP280;2801;50.972;7.856;2023-11-19T01:12:34;96996.16;;;9.91
24201;BMP280;2801;50.972;7.856;2023-11-19T01:15:01;96991.75;;;9.95
24201;BMP280;2801;50.972;7.856;2023-11-19T01:17:29;96998.00;;;9.99
24201;BMP280;2801;50.972;7.856;2023-11-19T01:19:58;97010.28;;;10.00
24201;BMP280;2801;50.972;7.856;2023-11-19T01:22:26;97003.69;;;9.98
24201;BMP280;2801;50.972;7.856;2023-11-19T01:24:54;97004.28;;;10.03
24201;BMP280;2801;50.972;7.856;2023-11-19T01:27:24;97001.91;;;10.02
24201;BMP280;2801;50.972;7.856;2023-11-19T01:29:52;96989.75;;;10.04
24201;BMP280;2801;50.972;7.856;2023-11-19T01:32:21;96982.53;;;10.05
24201;BMP280;2801;50.972;7.856;2023-11-19T01:34:52;96986.00;;;10.05
24201;BMP280;2801;50.972;7.856;2023-11-19T01:37:19;96981.72;;;10.04
24201;BMP280;2801;50.972;7.856;2023-11-19T01:39:46;96985.19;;;10.05
24201;BMP280;2801;50.972;7.856;2023-11-19T01:42:25;96985.34;;;10.08
24201;BMP280;2801;50.972;7.856;2023-11-19T01:45:01;96990.78;;;10.12
24201;BMP280;2801;50.972;7.856;2023-11-19T01:47:30;96990.38;;;10.10
24201;BMP280;2801;50.972;7.856;2023-11-19T01:49:59;96987.78;;;10.13
24201;BMP280;2801;50.972;7.856;2023-11-19T01:52:26;96974.53;;;10.17
24201;BMP280;2801;50.972;7.856;2023-11-19T01:54:54;96971.88;;;10.17
24201;BMP280;2801;50.972;7.856;2023-11-19T01:57:24;96976.66;;;10.23
24201;BMP280;2801;50.972;7.856;2023-11-19T01:59:53;96977.47;;;10.24
24201;BMP280;2801;50.972;7.856;2023-11-19T02:02:21;96977.31;;;10.20
24201;BMP280;2801;50.972;7.856;2023-11-19T02:04:52;96957.59;;;10.25
24201;BMP280;2801;50.972;7.856;2023-11-19T02:07:20;96953.03;;;10.25
24201;BMP280;2801;50.972;7.856;2023-11-19T02:09:47;96952.78;;;10.30
24201;BMP280;2801;50.972;7.856;2023-11-19T02:12:15;96955.56;;;10.34
24201;BMP280;2801;50.972;7.856;2023-11-19T02:14:42;96955.56;;;10.34
24201;BMP280;2801;50.972;7.856;2023-11-19T02:17:33;96967.19;;;10.38
24201;BMP280;2801;50.972;7.856;2023-11-19T02:20:05;96960.06;;;10.42
24201;BMP280;2801;50.972;7.856;2023-11-19T02:22:41;96965.09;;;10.43
24201;BMP280;2801;50.972;7.856;2023-11-19T02:25:17;96955.59;;;10.46
24201;BMP280;2801;50.972;7.856;2023-11-19T02:27:51;96973.59;;;10.45
24201;BMP280;2801;50.972;7.856;2023-11-19T02:30:28;96968.66;;;10.47
24201;BMP280;2801;50.972;7.856;2023-11-19T02:32:56;96961.88;;;10.50
24201;BMP280;2801;50.972;7.856;2023-11-19T02:35:25;96969.22;;;10.53
24201;BMP280;2801;50.972;7.856;2023-11-19T02:37:59;96961.66;;;10.55
24201;BMP280;2801;50.972;7.856;2023-11-19T02:40:27;96958.31;;;10.58
24201;BMP280;2801;50.972;7.856;2023-11-19T02:42:55;96955.72;;;10.61
24201;BMP280;2801;50.972;7.856;2023-11-19T02:45:23;96947.78;;;10.65
24201;BMP280;2801;50.972;7.856;2023-11-19T02:47:52;96947.13;;;10.68
24201;BMP280;2801;50.972;7.856;2023-11-19T02:50:20;96951.16;;;10.74
24201;BMP280;2801;50.972;7.856;2023-11-19T02:52:55;96939.31;;;10.75
24201;BMP280;2801;50.972;7.856;2023-11-19T02:55:25;96938.72;;;10.81
24201;BMP280;2801;50.972;7.856;2023-11-19T02:57:55;96935.84;;;10.86
24201;BMP280;2801;50.972;7.856;2023-11-19T03:00:23;96941.97;;;10.87
24201;BMP280;2801;50.972;7.856;2023-11-19T03:02:52;96935.59;;;10.91
24201;BMP280;2801;50.972;7.856;2023-11-19T03:05:27;96922.28;;;10.95
24201;BMP280;2801;50.972;7.856;2023-11-19T03:07:57;96901.03;;;11.02
24201;BMP280;2801;50.972;7.856;2023-11-19T03:10:24;96915.78;;;11.08
24201;BMP280;2801;50.972;7.856;2023-11-19T03:12:51;96921.25;;;11.11
24201;BMP280;2801;50.972;7.856;2023-11-19T03:15:18;96929.09;;;11.16
24201;BMP280;2801;50.972;7.856;2023-11-19T03:17:46;96920.78;;;11.21
24201;BMP280;2801;50.972;7.856;2023-11-19T03:20:16;96918.56;;;11.23
24201;BMP280;2801;50.972;7.856;2023-11-19T03:22:44;96916.06;;;11.30
24201;BMP280;2801;50.972;7.856;2023-11-19T03:25:12;96912.28;;;11.32
24201;BMP280;2801;50.972;7.856;2023-11-19T03:27:40;96908.88;;;11.34
24201;BMP280;2801;50.972;7.856;2023-11-19T03:30:09;96911.25;;;11.36
24201;BMP280;2801;50.972;7.856;2023-11-19T03:32:37;96910.91;;;11.38
24201;BMP280;2801;50.972;7.856;2023-11-19T03:35:06;96906.66;;;11.37
24201;BMP280;2801;50.972;7.856;2023-11-19T03:37:34;96905.97;;;11.40
24201;BMP280;2801;50.972;7.856;2023-11-19T03:40:03;96901.38;;;11.40
24201;BMP280;2801;50.972;7.856;2023-11-19T03:42:31;96908.00;;;11.43
24201;BMP280;2801;50.972;7.856;2023-11-19T03:45:03;96913.69;;;11.41
24201;BMP280;2801;50.972;7.856;2023-11-19T03:47:30;96906.06;;;11.43
24201;BMP280;2801;50.972;7.856;2023-11-19T03:49:57;96908.75;;;11.43
24201;BMP280;2801;50.972;7.856;2023-11-19T03:52:26;96907.41;;;11.49
24201;BMP280;2801;50.972;7.856;2023-11-19T03:54:56;96900.81;;;11.47
24201;BMP280;2801;50.972;7.856;2023-11-19T03:57:27;96906.19;;;11.47
24201;BMP280;2801;50.972;7.856;2023-11-19T03:59:54;96898.13;;;11.47
24201;BMP280;2801;50.972;7.856;2023-11-19T04:02:22;96892.84;;;11.50
24201;BMP280;2801;50.972;7.856;2023-11-19T04:04:49;96905.13;;;11.51
24201;BMP280;2801;50.972;7.856;2023-11-19T04:07:17;96903.59;;;11.50
24201;BMP280;2801;50.972;7.856;2023-11-19T04:09:44;96907.50;;;11.53
24201;BMP280;2801;50.972;7.856;2023-11-19T04:12:13;96902.91;;;11.53
24201;BMP280;2801;50.972;7.856;2023-11-19T04:14:41;96905.25;;;11.55
24201;BMP280;2801;50.972;7.856;2023-11-19T04:17:08;96904.56;;;11.58
24201;BMP280;2801;50.972;7.856;2023-11-19T04:19:35;96910.28;;;11.56
24201;BMP280;2801;50.972;7.856;2023-11-19T04:22:02;96899.22;;;11.58
24201;BMP280;2801;50.972;7.856;2023-11-19T04:24:29;96905.47;;;11.62
24201;BMP280;2801;50.972;7.856;2023-11-19T04:26:56;96902.66;;;11.58
24201;BMP280;2801;50.972;7.856;2023-11-19T04:29:23;96905.25;;;11.55
24201;BMP280;2801;50.972;7.856;2023-11-19T04:31:50;96902.13;;;11.53
24201;BMP280;2801;50.972;7.856;2023-11-19T04:34:17;96900.66;;;11.55
24201;BMP280;2801;50.972;7.856;2023-11-19T04:36:46;96892.16;;;11.53
24201;BMP280;2801;50.972;7.856;2023-11-19T04:39:13;96888.69;;;11.53
24201;BMP280;2801;50.972;7.856;2023-11-19T04:41:49;96885.13;;;11.49
24201;BMP280;2801;50.972;7.856;2023-11-19T04:44:16;96885.38;;;11.44
24201;BMP280;2801;50.972;7.856;2023-11-19T04:46:45;96897.16;;;11.39
24201;BMP280;2801;50.972;7.856;2023-11-19T04:49:13;96890.56;;;11.37
24201;BMP280;2801;50.972;7.856;2023-11-19T04:51:42;96892.44;;;11.36
24201;BMP280;2801;50.972;7.856;2023-11-19T04:54:10;96901.38;;;11.40
24201;BMP280;2801;50.972;7.856;2023-11-19T04:56:40;96888.84;;;11.44
24201;BMP280;2801;50.972;7.856;2023-11-19T04:59:07;96897.78;;;11.48
24201;BMP280;2801;50.972;7.856;2023-11-19T05:01:35;96891.72;;;11.51
24201;BMP280;2801;50.972;7.856;2023-11-19T05:04:03;96905.25;;;11.55
24201;BMP280;2801;50.972;7.856;2023-11-19T05:06:31;96899.22;;;11.58
24201;BMP280;2801;50.972;7.856;2023-11-19T05:08:59;96909.03;;;11.66
24201;BMP280;2801;50.972;7.856;2023-11-19T05:11:35;96910.59;;;11.67
24201;BMP280;2801;50.972;7.856;2023-11-19T05:14:17;96894.00;;;11.77
24201;BMP280;2801;50.972;7.856;2023-11-19T05:16:48;96901.25;;;11.76
24201;BMP280;2801;50.972;7.856;2023-11-19T05:19:17;96904.47;;;11.82
24201;BMP280;2801;50.972;7.856;2023-11-19T05:21:45;96898.66;;;11.80
24201;BMP280;2801;50.972;7.856;2023-11-19T05:24:12;96912.88;;;11.80
24201;BMP280;2801;50.972;7.856;2023-11-19T05:26:39;96908.31;;;11.81
24201;BMP280;2801;50.972;7.856;2023-11-19T05:29:08;96899.66;;;11.87
24201;BMP280;2801;50.972;7.856;2023-11-19T05:31:35;96899.53;;;11.84
24201;BMP280;2801;50.972;7.856;2023-11-19T05:34:04;96896.16;;;11.87
24201;BMP280;2801;50.972;7.856;2023-11-19T05:36:34;96900.84;;;11.90
24201;BMP280;2801;50.972;7.856;2023-11-19T05:39:01;96913.50;;;11.89
24201;BMP280;2801;50.972;7.856;2023-11-19T05:41:32;96911.84;;;11.85
24201;BMP280;2801;50.972;7.856;2023-11-19T05:43:59;96918.34;;;11.84
24201;BMP280;2801;50.972;7.856;2023-11-19T05:46:28;96921.66;;;11.93
24201;BMP280;2801;50.972;7.856;2023-11-19T05:48:55;96904.69;;;11.89
24201;BMP280;2801;50.972;7.856;2023-11-19T05:51:22;96923.13;;;11.90
24201;BMP280;2801;50.972;7.856;2023-11-19T05:53:52;96929.72;;;11.93
24201;BMP280;2801;50.972;7.856;2023-11-19T05:56:19;96926.69;;;11.94
24201;BMP280;2801;50.972;7.856;2023-11-19T05:58:48;96924.16;;;11.86
24201;BMP280;2801;50.972;7.856;2023-11-19T06:01:17;96925.28;;;11.85
24201;BMP280;2801;50.972;7.856;2023-11-19T06:03:44;96921.28;;;11.79
24201;BMP280;2801;50.972;7.856;2023-11-19T06:06:18;96919.19;;;11.72
24201;BMP280;2801;50.972;7.856;2023-11-19T06:08:47;96929.81;;;11.69
24201;BMP280;2801;50.972;7.856;2023-11-19T06:11:16;96928.59;;;11.66
24201;BMP280;2801;50.972;7.856;2023-11-19T06:13:47;96939.91;;;11.60
24201;BMP280;2801;50.972;7.856;2023-11-19T06:16:18;96918.19;;;11.65
24201;BMP280;2801;50.972;7.856;2023-11-19T06:18:45;96932.06;;;11.67
24201;BMP280;2801;50.972;7.856;2023-11-19T06:21:13;96940.47;;;11.65
24201;BMP280;2801;50.972;7.856;2023-11-19T06:23:46;96941.94;;;11.63
24201;BMP280;2801;50.972;7.856;2023-11-19T06:26:15;96936.91;;;11.61
24201;BMP280;2801;50.972;7.856;2023-11-19T06:28:42;96950.00;;;11.63
24201;BMP280;2801;50.972;7.856;2023-11-19T06:31:14;96942.91;;;11.58
24201;BMP280;2801;50.972;7.856;2023-11-19T06:33:43;96943.38;;;11.60
24201;BMP280;2801;50.972;7.856;2023-11-19T06:36:10;96945.84;;;11.65
24201;BMP280;2801;50.972;7.856;2023-11-19T06:38:37;96950.88;;;11.55
24201;BMP280;2801;50.972;7.856;2023-11-19T06:41:08;96959.59;;;11.64
24201;BMP280;2801;50.972;7.856;2023-11-19T06:43:37;96945.84;;;11.53
24201;BMP280;2801;50.972;7.856;2023-11-19T06:46:16;96949.84;;;11.59
24201;BMP280;2801;50.972;7.856;2023-11-19T06:48:44;96952.78;;;11.54
24201;BMP280;2801;50.972;7.856;2023-11-19T06:51:12;96962.63;;;11.50
24201;BMP280;2801;50.972;7.856;2023-11-19T06:53:39;96968.00;;;11.50
24201;BMP280;2801;50.972;7.856;2023-11-19T06:56:27;96974.84;;;11.48
24201;BMP280;2801;50.972;7.856;2023-11-19T06:58:54;96974.03;;;11.47
24201;BMP280;2801;50.972;7.856;2023-11-19T07:01:21;96966.44;;;11.49
24201;BMP280;2801;50.972;7.856;2023-11-19T07:03:48;96977.88;;;11.46
24201;BMP280;2801;50.972;7.856;2023-11-19T07:06:16;96977.06;;;11.46
24201;BMP280;2801;50.972;7.856;2023-11-19T07:08:44;96975.09;;;11.43
24201;BMP280;2801;50.972;7.856;2023-11-19T07:11:14;96975.41;;;11.41
24201;BMP280;2801;50.972;7.856;2023-11-19T07:13:43;96963.00;;;11.37
24201;BMP280;2801;50.972;7.856;2023-11-19T07:16:10;96965.94;;;11.32
24201;BMP280;2801;50.972;7.856;2023-11-19T07:18:37;96967.38;;;11.29
24201;BMP280;2801;50.972;7.856;2023-11-19T07:21:05;96971.19;;;11.28
24201;BMP280;2801;50.972;7.856;2023-11-19T07:23:32;96976.34;;;11.21
24201;BMP280;2801;50.972;7.856;2023-11-19T07:26:01;96979.81;;;11.21
24201;BMP280;2801;50.972;7.856;2023-11-19T07:28:28;96987.63;;;11.26
24201;BMP280;2801;50.972;7.856;2023-11-19T07:30:55;96986.72;;;11.22
24201;BMP280;2801;50.972;7.856;2023-11-19T07:33:23;96984.59;;;11.28
24201;BMP280;2801;50.972;7.856;2023-11-19T07:35:51;96986.09;;;11.13
24201;BMP280;2801;50.972;7.856;2023-11-19T07:38:18;96986.97;;;11.17
24201;BMP280;2801;50.972;7.856;2023-11-19T07:40:45;96993.47;;;11.16
24201;BMP280;2801;50.972;7.856;2023-11-19T07:43:17;96990.34;;;11.14
24201;BMP280;2801;50.972;7.856;2023-11-19T07:45:44;96984.53;;;11.12
24201;BMP280;2801;50.972;7.856;2023-11-19T07:48:13;96974.22;;;11.14
24201;BMP280;2801;50.972;7.856;2023-11-19T07:50:40;96971.34;;;11.07
24201;BMP280;2801;50.972;7.856;2023-11-19T07:53:11;96966.75;;;11.08
24201;BMP280;2801;50.972;7.856;2023-11-19T07:55:39;96967.09;;;11.06
24201;BMP280;2801;50.972;7.856;2023-11-19T07:58:09;96970.25;;;11.08
24201;BMP280;2801;50.972;7.856;2023-11-19T08:00:38;96961.72;;;11.06
24201;BMP280;2801;50.972;7.856;2023-11-19T08:03:05;96967.56;;;11.08
24201;BMP280;2801;50.972;7.856;2023-11-19T08:05:32;96972.78;;;11.17
24201;BMP280;2801;50.972;7.856;2023-11-19T08:07:59;96989.53;;;11.26
24201;BMP280;2801;50.972;7.856;2023-11-19T08:10:27;96996.13;;;11.28
24201;BMP280;2801;50.972;7.856;2023-11-19T08:12:54;96998.34;;;11.26
24201;BMP280;2801;50.972;7.856;2023-11-19T08:15:21;97000.81;;;11.32
24201;BMP280;2801;50.972;7.856;2023-11-19T08:17:51;96998.56;;;11.33
24201;BMP280;2801;50.972;7.856;2023-11-19T08:20:18;97007.53;;;11.25
24201;BMP280;2801;50.972;7.856;2023-11-19T08:22:45;97007.84;;;11.36
24201;BMP280;2801;50.972;7.856;2023-11-19T08:25:12;97002.81;;;11.34
24201;BMP280;2801;50.972;7.856;2023-11-19T08:27:39;97010.31;;;11.41
24201;BMP280;2801;50.972;7.856;2023-11-19T08:30:07;97006.28;;;11.35
24201;BMP280;2801;50.972;7.856;2023-11-19T08:32:34;97010.19;;;11.38
24201;BMP280;2801;50.972;7.856;2023-11-19T08:35:03;97009.97;;;11.43
24201;BMP280;2801;50.972;7.856;2023-11-19T08:37:31;97003.91;;;11.46
24201;BMP280;2801;50.972;7.856;2023-11-19T08:39:58;97012.16;;;11.53
24201;BMP280;2801;50.972;7.856;2023-11-19T08:42:25;97011.97;;;11.58
24201;BMP280;2801;50.972;7.856;2023-11-19T08:44:52;97004.91;;;11.65
24201;BMP280;2801;50.972;7.856;2023-11-19T08:47:21;97006.78;;;11.65
24201;BMP280;2801;50.972;7.856;2023-11-19T08:49:53;97007.94;;;11.64
24201;BMP280;2801;50.972;7.856;2023-11-19T08:52:25;97017.63;;;11.80
24201;BMP280;2801;50.972;7.856;2023-11-19T08:54:52;97011.56;;;11.83
24201;BMP280;2801;50.972;7.856;2023-11-19T08:57:20;97014.72;;;11.73
24201;BMP280;2801;50.972;7.856;2023-11-19T08:59:50;97014.72;;;11.73
24201;BMP280;2801;50.972;7.856;2023-11-19T09:02:17;97016.28;;;11.74
24201;BMP280;2801;50.972;7.856;2023-11-19T09:04:46;97019.75;;;11.75
24201;BMP280;2801;50.972;7.856;2023-11-19T09:07:13;97012.25;;;11.80
24201;BMP280;2801;50.972;7.856;2023-11-19T09:09:40;97032.22;;;11.95
24201;BMP280;2801;50.972;7.856;2023-11-19T09:12:07;97013.38;;;12.07
24201;BMP280;2801;50.972;7.856;2023-11-19T09:14:34;97023.28;;;12.18
24201;BMP280;2801;50.972;7.856;2023-11-19T09:17:01;97022.41;;;12.14
24201;BMP280;2801;50.972;7.856;2023-11-19T09:19:32;97029.53;;;12.22
24201;BMP280;2801;50.972;7.856;2023-11-19T09:22:00;97042.53;;;12.20
24201;BMP280;2801;50.972;7.856;2023-11-19T09:24:27;97031.19;;;12.27
24201;BMP280;2801;50.972;7.856;2023-11-19T09:26:54;97022.44;;;12.30
24201;BMP280;2801;50.972;7.856;2023-11-19T09:29:23;97027.91;;;12.33
24201;BMP280;2801;50.972;7.856;2023-11-19T09:31:50;97036.41;;;12.35
24201;BMP280;2801;50.972;7.856;2023-11-19T09:34:17;97036.50;;;12.39
24201;BMP280;2801;50.972;7.856;2023-11-19T09:36:44;97034.59;;;12.39
24201;BMP280;2801;50.972;7.856;2023-11-19T09:39:13;97038.91;;;12.44
24201;BMP280;2801;50.972;7.856;2023-11-19T09:41:45;97038.03;;;12.40
24201;BMP280;2801;50.972;7.856;2023-11-19T09:44:12;97039.97;;;12.39
24201;BMP280;2801;50.972;7.856;2023-11-19T09:46:41;97040.41;;;12.41
24201;BMP280;2801;50.972;7.856;2023-11-19T09:49:10;97038.25;;;12.47
24201;BMP280;2801;50.972;7.856;2023-11-19T09:51:37;97032.13;;;12.34
24201;BMP280;2801;50.972;7.856;2023-11-19T09:54:04;97038.16;;;12.43
24201;BMP280;2801;50.972;7.856;2023-11-19T09:56:33;97040.16;;;12.46
24201;BMP280;2801;50.972;7.856;2023-11-19T09:59:00;97030.63;;;12.49
24201;BMP280;2801;50.972;7.856;2023-11-19T10:01:29;97027.81;;;12.45
24201;BMP280;2801;50.972;7.856;2023-11-19T10:04:00;97036.00;;;12.49
24201;BMP280;2801;50.972;7.856;2023-11-19T10:06:28;97029.75;;;12.45
24201;BMP280;2801;50.972;7.856;2023-11-19T10:08:55;97030.63;;;12.49
24201;BMP280;2801;50.972;7.856;2023-11-19T10:11:24;97034.94;;;12.53
24201;BMP280;2801;50.972;7.856;2023-11-19T10:13:53;97036.41;;;12.51
24201;BMP280;2801;50.972;7.856;2023-11-19T10:16:28;97039.72;;;12.44
24201;BMP280;2801;50.972;7.856;2023-11-19T10:18:56;97032.38;;;12.57
24201;BMP280;2801;50.972;7.856;2023-11-19T10:21:24;97032.88;;;12.62
24201;BMP280;2801;50.972;7.856;2023-11-19T10:23:57;97022.91;;;12.63
24201;BMP280;2801;50.972;7.856;2023-11-19T10:26:27;97025.06;;;12.57
24201;BMP280;2801;50.972;7.856;2023-11-19T10:28:56;97024.31;;;12.57
24201;BMP280;2801;50.972;7.856;2023-11-19T10:31:23;97024.56;;;12.52
24201;BMP280;2801;50.972;7.856;2023-11-19T10:33:53;97015.38;;;12.53
24201;BMP280;2801;50.972;7.856;2023-11-19T10:36:21;97024.13;;;12.50
24201;BMP280;2801;50.972;7.856;2023-11-19T10:38:55;97022.56;;;12.49
24201;BMP280;2801;50.972;7.856;2023-11-19T10:41:32;97025.94;;;12.46
24201;BMP280;2801;50.972;7.856;2023-11-19T10:43:59;97023.25;;;12.46
24201;BMP280;2801;50.972;7.856;2023-11-19T10:46:39;97012.22;;;12.51
24201;BMP280;2801;50.972;7.856;2023-11-19T10:49:08;97017.78;;;12.58
24201;BMP280;2801;50.972;7.856;2023-11-19T10:51:36;97015.97;;;12.62
24201;BMP280;2801;50.972;7.856;2023-11-19T10:54:05;97003.22;;;12.59
24201;BMP280;2801;50.972;7.856;2023-11-19T10:56:34;97007.72;;;12.70
24201;BMP280;2801;50.972;7.856;2023-11-19T10:59:02;97006.69;;;12.75
24201;BMP280;2801;50.972;7.856;2023-11-19T11:01:51;97012.50;;;12.77
24201;BMP280;2801;50.972;7.856;2023-11-19T11:04:24;97005.28;;;12.81
24201;BMP280;2801;50.972;7.856;2023-11-19T11:06:55;97006.78;;;12.78
24201;BMP280;2801;50.972;7.856;2023-11-19T11:09:23;97016.75;;;12.78
24201;BMP280;2801;50.972;7.856;2023-11-19T11:11:52;97019.88;;;12.80
24201;BMP280;2801;50.972;7.856;2023-11-19T11:14:23;97019.53;;;12.81
24201;BMP280;2801;50.972;7.856;2023-11-19T11:16:53;97015.97;;;12.77
24201;BMP280;2801;50.972;7.856;2023-11-19T11:19:21;97019.94;;;12.83
24201;BMP280;2801;50.972;7.856;2023-11-19T11:21:55;97005.06;;;12.86
24201;BMP280;2801;50.972;7.856;2023-11-19T11:27:16;97010.16;;;12.91
24201;BMP280;2801;50.972;7.856;2023-11-19T11:33:25;97017.47;;;12.75
24201;BMP280;2801;50.972;7.856;2023-11-19T11:38:37;97006.06;;;12.97
24201;BMP280;2801;50.972;7.856;2023-11-19T11:41:24;96996.44;;;12.96
24201;BMP280;2801;50.972;7.856;2023-11-19T11:43:56;97002.53;;;13.08
24201;BMP280;2801;50.972;7.856;2023-11-19T11:49:03;96998.81;;;13.13
24201;BMP280;2801;50.972;7.856;2023-11-19T11:57:12;96989.41;;;13.07
24201;BMP280;2801;50.972;7.856;2023-11-19T11:59:50;96987.00;;;13.02
24201;BMP280;2801;50.972;7.856;2023-11-19T12:02:21;96988.84;;;12.98
24201;BMP280;2801;50.972;7.856;2023-11-19T12:04:52;96994.00;;;12.75
24201;BMP280;2801;50.972;7.856;2023-11-19T12:07:24;96993.25;;;12.59
24201;BMP280;2801;50.972;7.856;2023-11-19T12:10:09;97002.00;;;12.41
24201;BMP280;2801;50.972;7.856;2023-11-19T12:13:00;96982.97;;;12.18
24201;BMP280;2801;50.972;7.856;2023-11-19T12:15:28;96993.59;;;11.99
24201;BMP280;2801;50.972;7.856;2023-11-19T12:17:55;96980.56;;;11.86
24201;BMP280;2801;50.972;7.856;2023-11-19T12:20:25;96973.69;;;11.73
24201;BMP280;2801;50.972;7.856;2023-11-19T12:22:55;96984.56;;;11.64
24201;BMP280;2801;50.972;7.856;2023-11-19T12:25:22;96988.38;;;11.63
24201;BMP280;2801;50.972;7.856;2023-11-19T12:27:51;96988.47;;;11.55
24201;BMP280;2801;50.972;7.856;2023-11-19T12:30:26;96978.28;;;11.60
24201;BMP280;2801;50.972;7.856;2023-11-19T12:32:54;96979.94;;;11.65
24201;BMP280;2801;50.972;7.856;2023-11-19T12:35:23;96988.22;;;11.60
24201;BMP280;2801;50.972;7.856;2023-11-19T12:37:52;96970.81;;;11.54
24201;BMP280;2801;50.972;7.856;2023-11-19T12:40:25;96965.66;;;11.49
24201;BMP280;2801;50.972;7.856;2023-11-19T12:42:54;96958.63;;;11.44
24201;BMP280;2801;50.972;7.856;2023-11-19T12:45:22;96963.97;;;11.44
24201;BMP280;2801;50.972;7.856;2023-11-19T12:48:05;96961.88;;;11.38
24201;BMP280;2801;50.972;7.856;2023-11-19T12:53:23;96964.91;;;11.48
24201;BMP280;2801;50.972;7.856;2023-11-19T12:55:52;96940.75;;;11.48
24201;BMP280;2801;50.972;7.856;2023-11-19T12:58:36;96951.91;;;11.50
24201;BMP280;2801;50.972;7.856;2023-11-19T13:01:06;96943.72;;;11.59
24201;BMP280;2801;50.972;7.856;2023-11-19T13:03:37;96935.56;;;11.67
24201;BMP280;2801;50.972;7.856;2023-11-19T13:06:08;96937.03;;;11.80
24201;BMP280;2801;50.972;7.856;2023-11-19T13:08:45;96931.69;;;11.80
24201;BMP280;2801;50.972;7.856;2023-11-19T13:11:14;96951.81;;;11.86
24201;BMP280;2801;50.972;7.856;2023-11-19T13:14:05;96946.03;;;12.00
24201;BMP280;2801;50.972;7.856;2023-11-19T13:16:38;96943.06;;;12.05
24201;BMP280;2801;50.972;7.856;2023-11-19T13:19:10;96942.72;;;12.06
24201;BMP280;2801;50.972;7.856;2023-11-19T13:21:37;96941.72;;;12.11
24201;BMP280;2801;50.972;7.856;2023-11-19T13:24:07;96932.78;;;12.07
24201;BMP280;2801;50.972;7.856;2023-11-19T13:26:35;96946.28;;;12.10
24201;BMP280;2801;50.972;7.856;2023-11-19T13:29:02;96942.28;;;12.04
24201;BMP280;2801;50.972;7.856;2023-11-19T13:31:31;96927.56;;;11.98
24201;BMP280;2801;50.972;7.856;2023-11-19T13:34:01;96937.50;;;11.98
24201;BMP280;2801;50.972;7.856;2023-11-19T13:36:28;96934.50;;;11.99
24201;BMP280;2801;50.972;7.856;2023-11-19T13:38:55;96924.69;;;11.91
24201;BMP280;2801;50.972;7.856;2023-11-19T13:41:26;96930.41;;;11.90
24201;BMP280;2801;50.972;7.856;2023-11-19T13:43:53;96927.78;;;11.93
24201;BMP280;2801;50.972;7.856;2023-11-19T13:46:22;96928.91;;;11.92
24201;BMP280;2801;50.972;7.856;2023-11-19T13:48:49;96933.34;;;11.85
24201;BMP280;2801;50.972;7.856;2023-11-19T13:51:19;96925.63;;;11.83
24201;BMP280;2801;50.972;7.856;2023-11-19T13:53:47;96934.28;;;11.77
24201;BMP280;2801;50.972;7.856;2023-11-19T13:56:17;96934.84;;;11.70
24201;BMP280;2801;50.972;7.856;2023-11-19T13:58:44;96935.88;;;11.66
24201;BMP280;2801;50.972;7.856;2023-11-19T14:01:11;96932.53;;;11.57
24201;BMP280;2801;50.972;7.856;2023-11-19T14:03:40;96933.66;;;11.56
24201;BMP280;2801;50.972;7.856;2023-11-19T14:06:09;96926.94;;;11.50
24201;BMP280;2801;50.972;7.856;2023-11-19T14:08:36;96933.25;;;11.42
24201;BMP280;2801;50.972;7.856;2023-11-19T14:11:05;96930.47;;;11.38
24201;BMP280;2801;50.972;7.856;2023-11-19T14:13:33;96934.16;;;11.33
24201;BMP280;2801;50.972;7.856;2023-11-19T14:16:03;96936.31;;;11.28
24201;BMP280;2801;50.972;7.856;2023-11-19T14:18:33;96942.81;;;11.27
24201;BMP280;2801;50.972;7.856;2023-11-19T14:21:02;96942.50;;;11.16
24201;BMP280;2801;50.972;7.856;2023-11-19T14:23:30;96945.28;;;11.20
24201;BMP280;2801;50.972;7.856;2023-11-19T14:25:57;96932.66;;;11.20
24201;BMP280;2801;50.972;7.856;2023-11-19T14:28:26;96931.06;;;11.19
24201;BMP280;2801;50.972;7.856;2023-11-19T14:30:53;96927.16;;;11.17
24201;BMP280;2801;50.972;7.856;2023-11-19T14:33:24;96925.19;;;11.14
24201;BMP280;2801;50.972;7.856;2023-11-19T14:35:51;96935.91;;;11.14
24201;BMP280;2801;50.972;7.856;2023-11-19T14:38:20;96930.53;;;11.14
24201;BMP280;2801;50.972;7.856;2023-11-19T14:40:47;96927.41;;;11.12
24201;BMP280;2801;50.972;7.856;2023-11-19T14:43:15;96929.22;;;11.08
24201;BMP280;2801;50.972;7.856;2023-11-19T14:45:42;96917.13;;;11.02
24201;BMP280;2801;50.972;7.856;2023-11-19T14:48:17;96915.59;;;11.01
24201;BMP280;2801;50.972;7.856;2023-11-19T14:50:46;96915.91;;;10.99
24201;BMP280;2801;50.972;7.856;2023-11-19T14:53:13;96907.13;;;10.99
24201;BMP280;2801;50.972;7.856;2023-11-19T14:55:42;96911.81;;;10.90